Time;durP1;ratioP1;P1;durP2;ratioP2;P2;SDS_P1;SDS_P2;PMS_P1;PMS_P2;Temp;Humidity;BMP_temperature;BMP_pressure;BME280_temperature;BME280_humidity;BME280_pressure;Samples;Min_cycle;Max_cycle;Signal;HPM_P1;HPM_P2
2021/09/30 00:02:10;;;;;;;7.05;1.42;;;;;;;16.42;43.97;101382.22;4435143;32;20046;-69
2021/09/30 00:04:36;;;;;;;7.95;1.87;;;;;;;16.65;43.58;101379.72;4431030;32;20118;-70
2021/09/30 00:07:06;;;;;;;7.62;1.70;;;;;;;16.54;44.00;101373.63;4437049;32;20072;-69
2021/09/30 00:09:35;;;;;;;11.55;2.12;;;;;;;16.50;44.04;101366.53;4427687;32;20029;-69
2021/09/30 00:12:08;;;;;;;6.90;1.50;;;;;;;16.64;43.93;101360.28;4432708;32;20030;-69
2021/09/30 00:17:31;;;;;;;9.02;1.80;;;;;;;16.92;43.28;101353.47;3983385;32;15023357;-69
2021/09/30 00:47:41;;;;;;;8.65;1.60;;;;;;;17.49;43.04;101330.75;4436637;32;20079;-69
2021/09/30 00:50:19;;;;;;;10.07;1.60;;;;;;;17.05;43.59;101320.81;4435888;32;20073;-69
2021/09/30 02:27:36;;;;;;;14.00;1.90;;;;;;;18.22;42.36;101256.69;4435167;32;20057;-69
2021/09/30 03:00:08;;;;;;;10.98;2.00;;;;;;;17.55;44.54;101157.31;4434356;32;20025;-69
2021/09/30 03:02:38;;;;;;;11.07;2.28;;;;;;;17.64;44.36;101158.06;4434605;32;20017;-69
2021/09/30 03:05:04;;;;;;;10.60;1.98;;;;;;;17.71;44.37;101154.91;4435781;32;20051;-69
2021/09/30 03:07:32;;;;;;;11.48;1.95;;;;;;;17.56;44.37;101150.34;4435860;32;20379;-69
2021/09/30 03:09:59;;;;;;;8.45;1.87;;;;;;;17.58;44.65;101142.91;4435463;32;20532;-69
2021/09/30 03:15:15;;;;;;;8.73;1.65;;;;;;;18.46;43.26;101132.16;3981915;32;15027204;-69
2021/09/30 03:17:48;;;;;;;4.68;1.30;;;;;;;18.46;43.26;101132.16;4439052;32;20034;-69
2021/09/30 03:20:31;;;;;;;8.32;1.37;;;;;;;18.28;43.25;101130.16;4435695;32;20065;-69
2021/09/30 03:23:03;;;;;;;9.30;1.52;;;;;;;18.21;43.39;101124.03;4437600;32;20085;-69
2021/09/30 03:25:30;;;;;;;13.73;3.20;;;;;;;18.29;43.25;101116.72;4436713;32;20480;-69
2021/09/30 03:27:57;;;;;;;8.73;1.33;;;;;;;18.22;43.48;101122.78;4431272;32;20064;-69
2021/09/30 03:30:25;;;;;;;5.35;1.33;;;;;;;18.07;43.71;101114.13;4435360;32;20073;-69
2021/09/30 03:32:52;;;;;;;4.72;1.23;;;;;;;18.14;43.74;101118.69;4438154;32;20030;-69
2021/09/30 03:35:19;;;;;;;8.55;1.67;;;;;;;18.27;43.49;101105.81;4434940;32;20069;-69
2021/09/30 03:37:45;;;;;;;6.05;1.30;;;;;;;18.43;43.25;101110.34;4438693;32;20059;-69
2021/09/30 03:40:11;;;;;;;9.38;1.75;;;;;;;18.33;43.17;101105.94;4437557;32;20057;-69
2021/09/30 03:42:36;;;;;;;14.23;1.80;;;;;;;18.46;43.07;101104.47;4435583;32;20125;-69
2021/09/30 03:45:04;;;;;;;7.03;1.55;;;;;;;18.22;43.20;101100.75;4434364;32;20072;-69
2021/09/30 03:47:30;;;;;;;6.37;1.30;;;;;;;18.25;43.50;101099.03;4437917;32;20096;-69
2021/09/30 03:49:56;;;;;;;7.68;1.15;;;;;;;18.33;43.51;101100.22;4435240;32;20092;-69
2021/09/30 03:52:31;;;;;;;9.43;1.37;;;;;;;18.29;43.55;101099.62;4435865;32;20018;-69
2021/09/30 03:55:25;;;;;;;4.28;1.17;;;;;;;18.50;43.25;101087.19;4438968;32;21463;-69
2021/09/30 04:00:28;;;;;;;11.05;1.73;;;;;;;18.22;43.83;101082.91;4434483;32;20084;-69
2021/09/30 04:02:54;;;;;;;8.63;1.42;;;;;;;18.19;44.03;101076.09;4438022;32;20485;-69
2021/09/30 04:05:20;;;;;;;6.70;1.00;;;;;;;18.15;44.27;101078.34;4437954;32;20097;-69
2021/09/30 04:07:45;;;;;;;6.72;1.00;;;;;;;18.18;44.15;101079.41;4438734;32;20089;-69
2021/09/30 04:10:11;;;;;;;8.52;1.60;;;;;;;17.96;44.66;101071.16;4434343;32;20052;-69
2021/09/30 04:12:37;;;;;;;11.95;1.20;;;;;;;17.66;45.35;101066.53;4436086;32;20047;-69
2021/09/30 04:15:03;;;;;;;10.90;1.20;;;;;;;17.79;45.19;101059.34;4433844;32;20052;-69
2021/09/30 04:17:29;;;;;;;7.55;1.37;;;;;;;17.77;45.41;101061.13;4437068;32;20060;-69
2021/09/30 04:19:55;;;;;;;14.20;2.42;;;;;;;17.78;45.27;101054.94;4435058;32;20101;-69
2021/09/30 04:22:21;;;;;;;6.60;1.27;;;;;;;17.89;44.97;101049.50;4434925;32;20080;-69
2021/09/30 04:24:48;;;;;;;11.20;1.70;;;;;;;17.85;45.09;101039.56;4432631;32;20113;-69
2021/09/30 04:27:15;;;;;;;6.10;1.02;;;;;;;17.79;45.13;101033.72;4427492;32;20049;-69
2021/09/30 04:29:41;;;;;;;8.73;1.33;;;;;;;17.79;45.22;101047.16;4423749;32;20070;-69
2021/09/30 04:32:07;;;;;;;11.57;1.87;;;;;;;17.68;45.59;101047.69;4425183;32;20196;-69
2021/09/30 04:34:33;;;;;;;9.52;1.55;;;;;;;17.83;45.38;101051.41;4425440;32;20070;-69
2021/09/30 04:36:59;;;;;;;6.37;1.40;;;;;;;17.56;45.84;101039.38;4420245;32;20430;-68
2021/09/30 04:39:25;;;;;;;9.73;1.77;;;;;;;17.63;45.91;101036.97;4426718;32;20030;-69
2021/09/30 04:41:51;;;;;;;7.93;1.08;;;;;;;17.80;45.73;101032.47;4427916;32;20356;-69
2021/09/30 04:44:18;;;;;;;10.20;1.48;;;;;;;18.03;45.18;101027.28;4425561;32;20798;-69
2021/09/30 04:46:44;;;;;;;8.63;1.37;;;;;;;17.92;45.31;101030.69;4425518;32;20112;-69
2021/09/30 04:49:10;;;;;;;12.18;1.50;;;;;;;18.04;45.31;101014.62;4426895;32;20084;-69
2021/09/30 04:51:36;;;;;;;10.25;1.60;;;;;;;17.80;45.89;101017.44;4419971;32;20085;-69
2021/09/30 04:54:01;;;;;;;10.23;1.52;;;;;;;17.71;46.43;101009.72;4428555;32;20498;-69
2021/09/30 04:56:29;;;;;;;11.18;1.87;;;;;;;17.87;45.97;101009.34;4424953;32;20474;-69
2021/09/30 04:58:55;;;;;;;7.30;1.58;;;;;;;18.02;45.63;100998.03;4422559;32;20022;-69
2021/09/30 05:01:21;;;;;;;8.25;1.20;;;;;;;17.92;46.12;100993.66;4423255;32;20033;-69
2021/09/30 05:03:47;;;;;;;11.55;1.30;;;;;;;18.26;45.25;101000.88;4426009;32;20153;-68
2021/09/30 05:06:13;;;;;;;4.80;0.85;;;;;;;18.35;45.34;101004.44;4425748;32;20049;-69
2021/09/30 05:08:41;;;;;;;11.75;1.20;;;;;;;18.36;45.37;101002.38;4422320;32;20066;-69
2021/09/30 05:11:07;;;;;;;11.35;1.10;;;;;;;18.21;45.56;100995.84;4426536;32;20077;-69
2021/09/30 05:13:37;;;;;;;7.62;1.25;;;;;;;18.25;45.63;100991.53;4423423;32;20026;-69
2021/09/30 05:16:05;;;;;;;12.35;2.05;;;;;;;18.41;45.49;100993.22;4424936;32;20042;-69
2021/09/30 05:18:31;;;;;;;10.98;1.45;;;;;;;18.15;46.42;100995.72;4427333;32;20257;-69
2021/09/30 05:20:57;;;;;;;5.10;1.15;;;;;;;17.84;47.26;100983.88;4424072;32;20045;-69
2021/09/30 05:23:23;;;;;;;7.57;1.20;;;;;;;17.94;47.07;100978.94;4425847;32;20041;-69
2021/09/30 05:25:49;;;;;;;9.40;1.67;;;;;;;17.60;47.95;100969.63;4424407;32;20097;-69
2021/09/30 05:28:15;;;;;;;6.40;1.23;;;;;;;17.74;48.07;100965.28;4423690;32;20183;-68
2021/09/30 05:30:41;;;;;;;8.35;1.00;;;;;;;17.80;47.99;100958.44;4427809;32;20082;-69
2021/09/30 05:33:07;;;;;;;8.40;1.15;;;;;;;17.82;48.00;100960.78;4423725;32;20046;-69
2021/09/30 05:35:33;;;;;;;4.45;0.98;;;;;;;17.82;48.10;100964.44;4426531;32;20060;-69
2021/09/30 05:37:58;;;;;;;9.93;1.30;;;;;;;17.80;48.36;100949.88;4424816;32;20075;-69
2021/09/30 05:40:27;;;;;;;7.82;1.45;;;;;;;17.94;48.08;100947.62;4424962;32;20092;-69
2021/09/30 05:42:54;;;;;;;10.55;1.40;;;;;;;18.12;47.82;100953.16;4425592;32;20117;-69
2021/09/30 05:45:21;;;;;;;8.82;1.27;;;;;;;17.84;48.55;100933.44;4418346;32;20517;-69
2021/09/30 05:47:47;;;;;;;9.90;1.23;;;;;;;17.71;49.29;100934.94;4424983;32;20478;-69
2021/09/30 05:50:14;;;;;;;5.80;1.23;;;;;;;17.96;48.84;100913.72;4425771;32;20081;-69
2021/09/30 05:52:41;;;;;;;11.05;1.50;;;;;;;17.86;49.39;100913.03;4425859;32;20081;-68
2021/09/30 05:55:08;;;;;;;8.95;1.55;;;;;;;17.68;50.06;100913.91;4424259;32;20085;-68
2021/09/30 05:57:34;;;;;;;8.48;1.70;;;;;;;17.57;50.89;100910.81;4424523;32;20734;-68
2021/09/30 06:00:12;;;;;;;9.15;1.95;;;;;;;17.47;51.34;100917.03;4421422;32;20136;-67
2021/09/30 06:10:59;;;;;;;10.63;2.72;;;;;;;17.48;52.03;100904.38;4424032;32;19984;-66
2021/09/30 06:14:01;;;;;;;5.30;2.37;;;;;;;17.43;52.63;100902.97;4417089;32;20565;-66
2021/09/30 06:16:16;;;;;;;7.82;2.20;;;;;;;17.25;53.12;100891.66;4426334;32;20073;-66
2021/09/30 06:18:42;;;;;;;5.75;2.55;;;;;;;17.41;52.84;100881.94;4423843;32;20501;-66
2021/09/30 06:21:09;;;;;;;7.32;2.60;;;;;;;17.19;53.44;100879.38;4421241;32;20442;-67
2021/09/30 06:23:35;;;;;;;9.18;2.97;;;;;;;17.24;53.67;100869.38;4421926;32;20406;-66
2021/09/30 06:26:01;;;;;;;9.00;3.10;;;;;;;17.40;53.36;100866.16;4421172;32;20065;-66
2021/09/30 06:28:27;;;;;;;8.48;2.75;;;;;;;17.56;53.28;100866.56;4422024;32;20140;-66
2021/09/30 06:30:53;;;;;;;11.75;3.12;;;;;;;17.19;54.42;100853.78;4416769;32;20061;-67
2021/09/30 06:33:18;;;;;;;10.43;3.17;;;;;;;17.27;54.43;100848.50;4418391;32;20069;-67
2021/09/30 06:35:44;;;;;;;8.70;3.40;;;;;;;17.39;54.23;100847.50;4415726;32;20140;-67
2021/09/30 06:38:10;;;;;;;8.13;3.20;;;;;;;17.29;54.48;100849.63;4415647;32;20089;-68
2021/09/30 06:40:36;;;;;;;9.13;3.90;;;;;;;17.45;54.26;100848.44;4413923;32;20073;-68
2021/09/30 06:43:02;;;;;;;5.65;3.20;;;;;;;17.85;53.32;100845.94;4419832;32;20100;-67
2021/09/30 06:45:28;;;;;;;7.85;3.35;;;;;;;17.99;52.98;100847.28;4418533;32;20056;-68
2021/09/30 06:47:54;;;;;;;10.63;3.05;;;;;;;17.84;53.47;100847.22;4415335;32;20076;-68
2021/09/30 06:50:20;;;;;;;7.12;3.10;;;;;;;18.14;52.93;100840.34;4412204;32;20543;-68
2021/09/30 06:52:46;;;;;;;7.12;3.25;;;;;;;18.27;52.53;100834.34;4414082;32;20119;-68
2021/09/30 06:55:13;;;;;;;10.20;2.28;;;;;;;18.09;52.90;100841.00;4411204;32;20030;-68
2021/09/30 06:57:39;;;;;;;8.95;3.45;;;;;;;18.16;52.63;100829.22;4406967;32;20360;-68
2021/09/30 07:00:09;;;;;;;9.55;3.20;;;;;;;18.12;53.01;100831.50;4408050;32;20077;-68
2021/09/30 07:02:37;;;;;;;8.98;2.80;;;;;;;18.53;52.29;100813.37;4401594;32;20074;-68
2021/09/30 07:05:04;;;;;;;10.15;3.30;;;;;;;18.63;52.14;100811.22;4402825;32;20487;-68
2021/09/30 07:07:30;;;;;;;5.47;2.72;;;;;;;18.67;51.77;100806.91;4403677;32;20046;-68
2021/09/30 07:09:56;;;;;;;6.22;2.80;;;;;;;18.62;51.77;100815.34;4408071;32;20202;-68
2021/09/30 07:12:22;;;;;;;5.93;2.80;;;;;;;18.30;52.56;100811.38;4404782;32;20137;-68
2021/09/30 07:14:48;;;;;;;6.87;2.92;;;;;;;18.50;52.29;100796.50;4407981;32;20085;-68
2021/09/30 07:17:14;;;;;;;8.13;2.65;;;;;;;18.53;52.08;100793.44;4404137;32;20129;-68
2021/09/30 07:19:39;;;;;;;6.75;2.55;;;;;;;18.71;51.69;100776.09;4402485;32;20073;-68
2021/09/30 07:22:07;;;;;;;7.50;2.10;;;;;;;18.97;51.15;100773.41;4401093;32;20069;-68
2021/09/30 07:24:37;;;;;;;9.38;1.92;;;;;;;19.07;50.82;100774.84;4404377;32;20096;-68
2021/09/30 07:27:04;;;;;;;6.80;2.20;;;;;;;18.71;51.96;100769.63;4406769;32;20458;-68
2021/09/30 07:29:30;;;;;;;9.40;1.83;;;;;;;18.93;51.44;100776.47;4405128;32;20468;-68
2021/09/30 07:31:56;;;;;;;7.32;1.80;;;;;;;18.65;51.80;100763.06;4403272;32;20065;-69
2021/09/30 07:34:21;;;;;;;7.12;1.75;;;;;;;18.83;51.44;100759.97;4403633;32;20093;-68
2021/09/30 07:36:47;;;;;;;8.25;1.83;;;;;;;18.97;51.19;100754.25;4405506;32;20064;-69
2021/09/30 07:39:16;;;;;;;4.82;1.92;;;;;;;18.82;51.42;100758.41;4404062;32;20104;-69
2021/09/30 07:41:42;;;;;;;8.52;2.30;;;;;;;18.78;51.70;100752.88;4406264;32;20178;-69
2021/09/30 07:44:09;;;;;;;13.50;2.60;;;;;;;18.95;51.33;100751.09;4407333;32;20095;-69
2021/09/30 07:46:37;;;;;;;7.20;2.25;;;;;;;18.50;51.76;100743.09;4403873;32;20423;-70
2021/09/30 07:49:05;;;;;;;9.00;2.00;;;;;;;18.90;51.33;100736.75;4407728;32;20549;-70
2021/09/30 07:51:33;;;;;;;8.25;1.70;;;;;;;18.95;51.23;100731.13;4406285;32;20702;-68
2021/09/30 07:53:59;;;;;;;11.52;2.37;;;;;;;18.94;50.98;100721.00;4408168;32;20160;-69
2021/09/30 07:56:27;;;;;;;11.98;1.60;;;;;;;19.06;51.11;100714.19;4410109;32;20073;-69
2021/09/30 07:58:52;;;;;;;6.85;1.67;;;;;;;19.05;50.54;100732.56;4408987;32;20073;-69
2021/09/30 08:01:20;;;;;;;4.95;1.60;;;;;;;18.88;50.68;100725.84;4408303;32;20100;-69
2021/09/30 08:03:46;;;;;;;11.25;1.67;;;;;;;19.02;50.58;100709.97;4409560;32;20107;-68
2021/09/30 08:06:12;;;;;;;7.15;1.73;;;;;;;19.25;50.49;100701.22;4410320;32;20455;-68
2021/09/30 08:08:37;;;;;;;6.93;1.50;;;;;;;18.88;51.25;100679.44;4406483;32;20100;-68
2021/09/30 08:11:03;;;;;;;7.07;1.45;;;;;;;18.73;51.26;100690.09;4409469;32;20570;-69
2021/09/30 08:13:31;;;;;;;8.45;1.80;;;;;;;18.41;52.19;100691.16;4406943;32;20433;-68
2021/09/30 08:15:58;;;;;;;5.03;1.23;;;;;;;18.48;52.08;100673.66;4410220;32;20085;-69
2021/09/30 08:18:24;;;;;;;6.90;1.85;;;;;;;18.85;51.45;100689.78;4406104;32;20464;-69
2021/09/30 08:20:50;;;;;;;7.00;1.45;;;;;;;18.72;51.65;100671.44;4407780;32;20089;-68
2021/09/30 08:23:16;;;;;;;7.45;1.20;;;;;;;18.67;51.49;100667.22;4403116;32;20078;-69
2021/09/30 08:25:43;;;;;;;5.25;1.10;;;;;;;18.62;51.89;100653.66;4409115;32;20545;-68
2021/09/30 08:28:10;;;;;;;4.97;0.70;;;;;;;19.06;50.55;100659.19;4411768;32;20064;-68
2021/09/30 08:30:37;;;;;;;6.43;1.30;;;;;;;18.82;51.06;100670.00;4409352;32;20172;-69
2021/09/30 08:33:03;;;;;;;4.95;0.90;;;;;;;19.18;50.40;100675.94;4409401;32;20526;-69
2021/09/30 08:35:28;;;;;;;5.78;1.25;;;;;;;18.59;51.54;100682.38;4406069;32;20189;-68
2021/09/30 08:37:54;;;;;;;6.20;0.95;;;;;;;18.89;51.27;100661.03;4410268;32;20069;-68
2021/09/30 08:40:21;;;;;;;5.22;1.27;;;;;;;19.11;50.77;100652.75;4406245;32;20074;-68
2021/09/30 08:42:48;;;;;;;3.60;0.95;;;;;;;18.97;51.31;100647.94;4408972;32;20085;-69
2021/09/30 08:45:19;;;;;;;4.22;1.25;;;;;;;19.03;51.69;100651.63;4407099;32;20077;-67
2021/09/30 08:48:02;;;;;;;6.28;1.35;;;;;;;18.73;52.76;100650.97;4411233;32;20721;-69
2021/09/30 08:50:32;;;;;;;7.35;1.98;;;;;;;18.63;52.89;100637.34;4405039;32;20069;-68
2021/09/30 08:53:01;;;;;;;6.03;1.70;;;;;;;18.34;53.86;100646.72;4408397;32;20049;-68
2021/09/30 08:55:27;;;;;;;11.48;1.70;;;;;;;18.52;53.91;100629.41;4404252;32;20421;-67
2021/09/30 08:57:52;;;;;;;8.15;1.52;;;;;;;18.71;53.51;100618.53;4411032;32;20033;-68
2021/09/30 09:00:20;;;;;;;9.45;2.22;;;;;;;18.62;53.41;100616.59;4407116;32;20064;-68
2021/09/30 09:02:50;;;;;;;8.77;2.03;;;;;;;18.95;53.11;100621.97;4409680;32;20077;-69
2021/09/30 09:05:21;;;;;;;14.05;2.40;;;;;;;19.11;52.73;100618.53;4407378;32;20058;-70
2021/09/30 09:07:56;;;;;;;11.25;1.60;;;;;;;19.41;51.83;100617.91;4409490;32;20081;-68
2021/09/30 09:10:24;;;;;;;9.35;1.58;;;;;;;19.64;51.13;100613.19;4409855;32;20417;-70
2021/09/30 09:23:57;;;;;;;6.75;1.80;;;;;;;20.20;49.85;100555.28;3976308;32;15036173;-70
2021/09/30 09:26:32;;;;;;;12.15;1.73;;;;;;;19.82;51.04;100572.09;4425942;32;20084;-70
2021/09/30 09:29:03;;;;;;;8.75;1.60;;;;;;;19.94;50.42;100574.50;4425877;32;20125;-70
2021/09/30 09:31:32;;;;;;;8.68;1.58;;;;;;;19.46;51.27;100550.75;4425197;32;20081;-70
2021/09/30 09:34:15;;;;;;;10.57;1.58;;;;;;;19.69;51.05;100550.44;4425326;32;20077;-70
2021/09/30 09:36:42;;;;;;;15.75;1.55;;;;;;;20.45;49.54;100542.97;4428594;32;20069;-69
2021/09/30 09:39:08;;;;;;;9.18;1.67;;;;;;;20.08;50.14;100553.59;4426099;32;20017;-70
2021/09/30 09:41:35;;;;;;;7.28;1.52;;;;;;;19.81;50.95;100542.75;4425366;32;20104;-69
2021/09/30 09:44:04;;;;;;;5.70;1.92;;;;;;;19.44;51.78;100551.25;4427430;32;20597;-70
2021/09/30 09:46:38;;;;;;;7.18;1.83;;;;;;;19.59;51.76;100571.09;4425217;32;20049;-68
2021/09/30 09:49:14;;;;;;;12.70;1.98;;;;;;;19.78;51.40;100560.88;4427143;32;20159;-69
2021/09/30 09:51:45;;;;;;;11.40;1.80;;;;;;;19.76;51.96;100543.50;4426042;32;20120;-69
2021/09/30 09:54:14;;;;;;;9.55;1.60;;;;;;;19.79;52.06;100553.91;4422547;32;20046;-69
2021/09/30 09:56:41;;;;;;;6.70;1.67;;;;;;;19.74;52.78;100546.84;4427193;32;20067;-70
2021/09/30 09:59:07;;;;;;;8.00;1.77;;;;;;;19.61;53.03;100545.69;4426692;32;20092;-69
2021/09/30 10:04:14;;;;;;;10.90;1.75;;;;;;;20.66;50.21;100543.56;3967314;32;15026596;-69
2021/09/30 10:06:41;;;;;;;9.80;2.00;;;;;;;20.66;50.21;100543.56;4429743;32;20662;-68
2021/09/30 10:09:11;;;;;;;7.07;1.70;;;;;;;20.11;51.08;100541.16;4431260;32;20084;-68
2021/09/30 10:11:37;;;;;;;8.30;2.15;;;;;;;20.52;50.20;100530.25;4431129;32;20454;-68
2021/09/30 10:14:06;;;;;;;15.52;2.47;;;;;;;20.65;49.53;100525.63;4425752;32;20598;-68
2021/09/30 10:16:33;;;;;;;6.82;1.80;;;;;;;20.81;49.49;100524.13;4428668;32;20222;-68
2021/09/30 10:19:01;;;;;;;8.68;1.92;;;;;;;21.00;48.99;100514.63;4430487;32;20447;-69
2021/09/30 10:21:30;;;;;;;8.55;1.65;;;;;;;21.25;48.57;100522.22;4430457;32;20168;-68
2021/09/30 10:24:01;;;;;;;10.77;2.17;;;;;;;21.08;49.06;100507.09;4427015;32;20473;-70
2021/09/30 10:29:05;;;;;;;7.05;1.50;;;;;;;21.49;48.04;100507.41;3975366;32;15022662;-68
2021/09/30 10:34:09;;;;;;;8.57;2.53;;;;;;;21.48;47.73;100512.34;3983794;31;15017243;-69
2021/09/30 10:41:57;;;;;;;8.20;1.85;;;;;;;22.13;46.66;100483.44;3940295;32;15022980;-69
2021/09/30 10:44:26;;;;;;;12.15;1.67;;;;;;;22.13;46.66;100483.44;4389798;32;20111;-69
2021/09/30 10:46:55;;;;;;;7.72;1.65;;;;;;;21.97;46.90;100475.66;4386822;32;20081;-70
2021/09/30 11:05:41;;;;;;;9.18;1.45;;;;;;;23.62;43.96;100448.97;3976494;32;15025740;-69
2021/09/30 11:08:29;;;;;;;10.00;1.83;;;;;;;23.62;43.96;100448.97;4422795;32;20073;-69
2021/09/30 11:16:36;;;;;;;8.90;1.45;;;;;;;24.18;42.83;100426.22;3964327;32;15024758;-70
2021/09/30 11:19:04;;;;;;;10.50;1.58;;;;;;;22.95;45.13;100413.47;4415372;32;20383;-70
2021/09/30 11:24:07;;;;;;;8.32;1.20;;;;;;;23.32;45.22;100416.63;3982428;32;15016007;-70
2021/09/30 11:26:54;;;;;;;9.23;1.65;;;;;;;23.32;45.22;100416.63;4431571;32;20060;-69
2021/09/30 11:34:35;;;;;;;8.32;2.45;;;;;;;23.22;46.10;100400.97;3975449;32;15025595;-68
2021/09/30 11:37:14;;;;;;;12.43;1.75;;;;;;;23.22;46.10;100400.97;4426697;32;20162;-70
2021/09/30 11:39:40;;;;;;;11.50;2.50;;;;;;;22.78;46.47;100395.56;4427212;32;20077;-69
2021/09/30 11:42:05;;;;;;;8.77;1.87;;;;;;;22.71;47.67;100393.28;4424913;32;20090;-68
2021/09/30 11:44:31;;;;;;;6.32;2.00;;;;;;;22.59;48.75;100386.06;4426780;32;20104;-69
2021/09/30 11:46:59;;;;;;;8.15;1.67;;;;;;;22.63;48.74;100377.94;4425660;32;20501;-68
2021/09/30 11:49:25;;;;;;;7.22;1.70;;;;;;;22.67;48.83;100379.22;4426434;32;20085;-68
2021/09/30 11:51:53;;;;;;;4.70;1.85;;;;;;;22.45;49.76;100373.56;4424057;32;21416;-68
2021/09/30 11:54:23;;;;;;;5.97;1.58;;;;;;;22.52;50.27;100378.78;4428611;32;20116;-68
2021/09/30 11:56:51;;;;;;;5.82;2.83;;;;;;;22.28;50.49;100357.78;4427010;32;20093;-70
2021/09/30 11:59:19;;;;;;;8.80;2.30;;;;;;;22.11;51.09;100352.13;4424980;32;20037;-70
2021/09/30 12:01:47;;;;;;;7.95;1.98;;;;;;;22.20;51.04;100360.41;4428020;32;20104;-68
2021/09/30 12:04:27;;;;;;;10.07;1.83;;;;;;;22.05;50.90;100351.34;4426644;32;20034;-69
2021/09/30 12:06:54;;;;;;;6.75;1.73;;;;;;;21.85;51.50;100354.56;4426281;32;20072;-69
2021/09/30 12:09:20;;;;;;;6.95;1.80;;;;;;;21.63;52.09;100340.28;4429037;32;20108;-69
2021/09/30 12:11:51;;;;;;;5.22;1.90;;;;;;;21.64;52.05;100347.56;4427087;32;20581;-69
2021/09/30 12:14:19;;;;;;;5.65;1.52;;;;;;;21.97;51.54;100340.97;4425228;32;20089;-69
2021/09/30 12:19:32;;;;;;;10.23;1.70;;;;;;;22.72;50.54;100346.84;3967371;32;15029104;-69
2021/09/30 12:21:58;;;;;;;6.97;1.70;;;;;;;22.72;50.54;100346.84;4416960;32;20081;-69
2021/09/30 12:24:26;;;;;;;3.78;1.35;;;;;;;22.50;50.53;100321.19;4416646;32;20091;-68
2021/09/30 12:26:53;;;;;;;6.55;1.75;;;;;;;22.44;50.51;100320.41;4416926;32;20066;-68
2021/09/30 12:29:20;;;;;;;5.68;1.90;;;;;;;22.43;50.06;100315.97;4415734;32;20073;-69
2021/09/30 12:31:51;;;;;;;10.77;1.70;;;;;;;22.63;49.86;100318.47;4417975;32;20096;-68
2021/09/30 12:34:25;;;;;;;6.62;1.60;;;;;;;22.74;50.12;100321.25;4416901;32;20038;-67
2021/09/30 12:36:51;;;;;;;9.52;1.83;;;;;;;22.82;50.56;100310.00;4416603;32;20042;-68
2021/09/30 12:39:26;;;;;;;6.43;1.85;;;;;;;22.08;52.40;100301.59;4416884;32;20419;-67
2021/09/30 12:41:53;;;;;;;5.22;1.80;;;;;;;22.80;51.52;100301.91;4416594;32;20076;-67
2021/09/30 12:44:20;;;;;;;6.68;1.92;;;;;;;22.42;52.00;100308.69;4414039;32;20080;-67
2021/09/30 12:46:50;;;;;;;13.00;1.73;;;;;;;22.55;52.04;100302.38;4412599;32;20104;-68
2021/09/30 12:49:16;;;;;;;7.30;1.92;;;;;;;22.54;52.16;100306.56;4411978;32;20053;-68
2021/09/30 12:51:42;;;;;;;7.43;1.52;;;;;;;22.25;52.98;100293.69;4415720;32;20146;-67
2021/09/30 12:54:08;;;;;;;2.75;1.52;;;;;;;22.16;53.19;100304.69;4412916;32;20077;-70
2021/09/30 12:56:34;;;;;;;5.15;1.87;;;;;;;22.09;53.80;100283.06;4416716;32;20488;-69
2021/09/30 12:59:15;;;;;;;3.67;1.52;;;;;;;22.45;53.43;100286.75;4416302;32;20096;-68
2021/09/30 13:01:42;;;;;;;6.57;1.70;;;;;;;23.07;51.95;100277.94;4417885;32;20160;-69
2021/09/30 13:07:03;;;;;;;5.75;2.33;;;;;;;23.69;51.42;100267.41;3992799;31;15020611;-69
2021/09/30 13:14:46;;;;;;;6.53;1.83;;;;;;;23.60;51.49;100241.91;3974065;32;15023919;-68
2021/09/30 13:17:15;;;;;;;7.28;1.95;;;;;;;23.60;51.49;100241.91;4428613;32;20072;-68
2021/09/30 13:19:45;;;;;;;4.43;1.58;;;;;;;23.23;52.17;100228.22;4428582;32;20079;-69
2021/09/30 13:22:13;;;;;;;6.82;2.03;;;;;;;23.02;52.22;100241.47;4426984;32;20081;-69
2021/09/30 13:24:41;;;;;;;3.33;1.90;;;;;;;22.90;53.12;100219.16;4426678;32;20061;-68
2021/09/30 13:27:11;;;;;;;5.25;2.00;;;;;;;23.18;52.61;100220.44;4428176;32;20444;-68
2021/09/30 13:29:37;;;;;;;6.32;2.40;;;;;;;23.29;52.22;100210.97;4423412;32;20503;-69
2021/09/30 13:32:05;;;;;;;8.00;2.70;;;;;;;22.93;52.61;100204.53;4426703;32;20071;-69
2021/09/30 13:34:30;;;;;;;3.72;1.45;;;;;;;23.00;52.90;100191.66;4425691;32;20679;-69
2021/09/30 13:36:56;;;;;;;4.15;1.20;;;;;;;23.10;52.08;100185.03;4428752;32;20505;-69
2021/09/30 13:39:22;;;;;;;4.35;1.37;;;;;;;23.13;52.36;100177.41;4421858;32;20608;-68
2021/09/30 13:41:47;;;;;;;8.48;1.95;;;;;;;23.30;51.84;100186.66;4428019;32;20495;-69
2021/09/30 13:44:14;;;;;;;6.65;1.73;;;;;;;23.11;52.15;100180.06;4423848;32;20762;-70
2021/09/30 13:46:39;;;;;;;6.10;1.70;;;;;;;23.49;51.99;100164.47;4427153;32;20091;-67
2021/09/30 13:49:05;;;;;;;2.33;1.33;;;;;;;23.65;51.77;100159.84;4425881;32;20041;-67
2021/09/30 13:51:33;;;;;;;4.72;1.65;;;;;;;23.62;52.01;100170.31;4428068;32;20133;-67
2021/09/30 13:53:58;;;;;;;5.70;2.20;;;;;;;23.70;51.61;100170.47;4426921;32;20131;-68
2021/09/30 13:56:26;;;;;;;7.55;1.60;;;;;;;23.66;51.91;100147.03;4427158;32;20085;-68
2021/09/30 13:58:52;;;;;;;5.12;1.73;;;;;;;24.11;51.20;100151.59;4427128;32;20073;-68
2021/09/30 14:01:18;;;;;;;3.42;1.15;;;;;;;24.12;51.17;100144.53;4425039;32;20101;-68
2021/09/30 14:03:44;;;;;;;4.03;1.30;;;;;;;23.88;51.41;100140.97;4424730;32;20516;-69
2021/09/30 14:06:09;;;;;;;3.97;1.35;;;;;;;23.77;51.65;100129.66;4426721;32;20077;-68
2021/09/30 14:08:35;;;;;;;5.30;1.90;;;;;;;23.86;51.77;100130.00;4426363;32;20512;-69
2021/09/30 14:11:01;;;;;;;4.40;1.20;;;;;;;24.05;51.97;100116.41;4424375;32;20438;-69
2021/09/30 14:13:27;;;;;;;4.70;1.05;;;;;;;23.86;52.30;100118.50;4425331;32;20127;-70
2021/09/30 14:15:53;;;;;;;2.78;1.45;;;;;;;23.84;51.98;100106.03;4424272;32;20481;-70
2021/09/30 14:18:19;;;;;;;4.68;1.50;;;;;;;23.93;52.20;100102.75;4424503;32;20041;-70
2021/09/30 14:20:47;;;;;;;5.00;2.03;;;;;;;23.73;52.82;100092.59;4426934;32;20072;-70
2021/09/30 14:23:13;;;;;;;4.12;1.23;;;;;;;24.01;52.37;100098.72;4424799;32;20466;-70
2021/09/30 14:25:39;;;;;;;5.10;0.98;;;;;;;24.14;52.16;100100.88;4417141;32;20077;-70
2021/09/30 14:28:05;;;;;;;2.22;1.05;;;;;;;24.00;52.47;100102.13;4410938;32;20073;-71
2021/09/30 14:30:31;;;;;;;5.97;1.20;;;;;;;23.79;52.98;100107.66;4415506;32;20126;-69
2021/09/30 14:32:57;;;;;;;4.18;1.17;;;;;;;23.93;53.12;100097.00;4415504;32;20100;-70
2021/09/30 14:35:23;;;;;;;3.67;1.50;;;;;;;24.02;52.34;100091.63;4415267;32;20095;-70
2021/09/30 14:37:49;;;;;;;6.30;1.30;;;;;;;24.24;52.03;100082.62;4415360;32;20162;-69
2021/09/30 14:40:15;;;;;;;3.00;1.12;;;;;;;24.08;52.30;100072.19;4414643;32;20478;-70
2021/09/30 14:42:43;;;;;;;3.12;1.27;;;;;;;24.20;51.88;100070.69;4415479;32;20045;-70
2021/09/30 14:45:09;;;;;;;3.08;1.48;;;;;;;24.39;51.73;100076.38;4413916;32;20037;-71
2021/09/30 14:47:35;;;;;;;1.20;0.75;;;;;;;24.00;52.46;100065.56;4416080;32;20258;-69
2021/09/30 14:50:00;;;;;;;3.37;0.93;;;;;;;23.99;52.43;100063.97;4416503;32;20493;-70
2021/09/30 14:52:26;;;;;;;1.37;0.80;;;;;;;24.37;51.98;100068.31;4414738;32;20104;-71
2021/09/30 14:54:52;;;;;;;4.00;1.00;;;;;;;23.67;53.37;100056.66;4419366;32;20083;-71
2021/09/30 14:57:18;;;;;;;3.92;1.12;;;;;;;23.74;53.40;100064.66;4410638;32;20085;-69
2021/09/30 14:59:44;;;;;;;3.87;1.30;;;;;;;23.81;53.20;100056.19;4414351;32;20259;-69
2021/09/30 15:02:10;;;;;;;3.12;0.93;;;;;;;23.96;53.64;100044.22;4413764;32;20355;-70
2021/09/30 15:04:37;;;;;;;2.22;1.30;;;;;;;23.72;53.96;100047.16;4414566;32;20202;-69
2021/09/30 15:07:03;;;;;;;4.80;1.40;;;;;;;23.94;53.60;100041.84;4416447;32;20121;-69
2021/09/30 15:09:29;;;;;;;3.37;1.20;;;;;;;23.94;53.71;100035.31;4418211;32;20140;-69
2021/09/30 15:11:55;;;;;;;4.87;0.85;;;;;;;24.12;53.36;100034.50;4418156;32;20072;-69
2021/09/30 15:14:22;;;;;;;4.72;0.95;;;;;;;23.92;53.55;100035.88;4417054;32;20220;-69
2021/09/30 15:19:49;;;;;;;4.55;1.40;;;;;;;23.72;54.74;100022.09;3990161;31;15016321;-70
2021/09/30 15:22:16;;;;;;;3.33;1.10;;;;;;;23.72;54.74;100022.09;4443979;32;20041;-69